Main page
METAR-TAF:

METAR-TAF

Airports :

London City Airport

London, England

latitude: 51-30N, longitude: 000-03E, elevation: 5 m

Current weather observation

The report was made 32 minutes ago, at 20:20 UTC
Wind 8 kt from variable directions with gusts up to 19 kt
Temperature 7°C
Humidity 57%
Pressure 1033 hPa
Visibility 10 km or more

METAR: EGLC 282020Z AUTO VRB08G19KT 9999 NCD 07/M01 Q1033

Time: 20:52 (20:52 UTC)


TAF: missing

Weather observations and forecasts of more than 4000 airports (METAR and TAF reports).

The available stations are represented by yellow and red dots on the map.

Hover mouse over dot to see the name of the station.

Then click to see weather observations and forecasts.

To change the map : click on the green buttons with a black cross to zoom in, on the green button with a dash to zoom out, or on the green arrows for adjacent maps.


METAR-TAF: